Time;durP1;ratioP1;P1;durP2;ratioP2;P2;SDS_P1;SDS_P2;PMS_P1;PMS_P2;Temp;Humidity;BMP_temperature;BMP_pressure;BME280_temperature;BME280_humidity;BME280_pressure;Samples;Min_cycle;Max_cycle;Signal;HPM_P1;HPM_P2
2022/11/21 00:00:17;;;;;;;9.40;8.00;;;-0.80;70.40;;;;;;5068498;28;20421;-74
2022/11/21 00:02:43;;;;;;;9.37;7.83;;;-0.70;61.90;;;;;;5053106;28;20171;-74
2022/11/21 00:05:09;;;;;;;9.57;8.07;;;-0.80;76.30;;;;;;5051957;28;20436;-74
2022/11/21 00:07:34;;;;;;;8.15;7.10;;;-0.80;72.60;;;;;;5052847;28;20248;-75
2022/11/21 00:10:00;;;;;;;8.43;7.67;;;-0.80;69.30;;;;;;5053075;28;20171;-75
2022/11/21 00:12:26;;;;;;;8.47;7.57;;;-0.80;62.00;;;;;;5051248;28;20519;-76
2022/11/21 00:14:51;;;;;;;8.37;7.20;;;-0.80;83.20;;;;;;5052076;28;20167;-74
2022/11/21 00:17:17;;;;;;;10.20;8.03;;;-0.90;68.30;;;;;;5054555;28;20222;-75
2022/11/21 00:19:43;;;;;;;9.67;6.60;;;-0.80;68.50;;;;;;5056566;28;20236;-73
2022/11/21 00:22:09;;;;;;;8.90;7.37;;;-0.80;75.00;;;;;;5056939;28;20182;-73
2022/11/21 00:24:34;;;;;;;10.27;7.73;;;-0.80;75.70;;;;;;5055724;28;20405;-73
2022/11/21 00:27:00;;;;;;;10.20;7.40;;;-0.70;81.60;;;;;;5056387;28;20199;-72
2022/11/21 00:29:27;;;;;;;7.83;7.03;;;-0.70;86.10;;;;;;5056498;28;20163;-73
2022/11/21 00:31:52;;;;;;;8.18;6.85;;;-0.70;87.20;;;;;;5056191;28;20401;-75
2022/11/21 00:34:18;;;;;;;12.73;8.10;;;-0.70;83.40;;;;;;5055579;28;20221;-73
2022/11/21 00:36:44;;;;;;;11.00;7.43;;;-0.80;77.50;;;;;;5055362;28;20200;-73
2022/11/21 00:39:10;;;;;;;7.00;6.40;;;-0.80;82.20;;;;;;5056539;28;20167;-73
2022/11/21 00:41:35;;;;;;;10.30;7.70;;;-0.70;87.10;;;;;;5056438;28;20169;-73
2022/11/21 00:44:01;;;;;;;9.33;6.83;;;-0.70;77.90;;;;;;5055582;28;20254;-75
2022/11/21 00:46:27;;;;;;;12.60;8.10;;;-0.70;87.20;;;;;;5056464;28;20186;-75
2022/11/21 00:48:52;;;;;;;12.00;6.80;;;-0.70;87.30;;;;;;5055746;28;20769;-75
2022/11/21 00:51:18;;;;;;;8.67;7.87;;;-0.60;87.30;;;;;;5056166;28;20162;-75
2022/11/21 00:53:44;;;;;;;8.83;7.93;;;-0.60;87.30;;;;;;5055328;28;20531;-73
2022/11/21 00:56:09;;;;;;;8.00;7.23;;;-0.50;87.40;;;;;;5056112;28;20179;-73
2022/11/21 00:58:35;;;;;;;8.00;7.07;;;-0.50;87.40;;;;;;5056189;28;20167;-73
2022/11/21 01:01:09;;;;;;;12.07;7.67;;;-0.40;87.40;;;;;;5056170;28;20171;-73
2022/11/21 01:03:35;;;;;;;8.45;7.07;;;-0.40;87.50;;;;;;5055552;28;20320;-75
2022/11/21 01:06:12;;;;;;;8.93;7.32;;;-0.30;87.60;;;;;;5053997;28;20210;-75
2022/11/21 01:08:40;;;;;;;8.30;7.60;;;-0.30;87.60;;;;;;5055566;28;20269;-75
2022/11/21 01:11:09;;;;;;;9.52;7.53;;;-0.20;87.60;;;;;;5055794;28;20178;-75
2022/11/21 01:13:36;;;;;;;10.35;7.65;;;-0.20;87.90;;;;;;5055412;28;20646;-75
2022/11/21 01:16:32;;;;;;;11.20;8.02;;;-0.30;87.60;;;;;;5054388;28;20213;-73
2022/11/21 01:18:58;;;;;;;8.30;7.13;;;-0.20;87.70;;;;;;5053597;28;20179;-75
2022/11/21 01:21:30;;;;;;;8.43;6.27;;;-0.20;91.60;;;;;;5055533;28;20584;-75
2022/11/21 01:23:58;;;;;;;9.70;7.82;;;-0.20;91.70;;;;;;5054279;28;20160;-75
2022/11/21 01:26:26;;;;;;;9.65;6.57;;;-0.10;97.60;;;;;;5055468;28;20205;-75
2022/11/21 01:28:52;;;;;;;8.52;7.68;;;-0.10;98.70;;;;;;5054253;28;20202;-73
2022/11/21 01:31:24;;;;;;;14.10;7.07;;;0.00;99.50;;;;;;5055467;28;20167;-75
2022/11/21 01:33:50;;;;;;;13.05;7.70;;;0.10;99.20;;;;;;5054389;28;20643;-75
2022/11/21 01:36:17;;;;;;;10.63;7.50;;;0.10;98.60;;;;;;5055413;28;20274;-73
2022/11/21 01:38:45;;;;;;;7.80;7.00;;;0.10;99.90;;;;;;5055388;28;20662;-74
2022/11/21 01:41:13;;;;;;;10.48;8.05;;;0.10;98.20;;;;;;5055132;28;20205;-75
2022/11/21 01:43:39;;;;;;;10.90;7.22;;;0.10;97.90;;;;;;5054327;28;20163;-75
2022/11/21 01:46:12;;;;;;;7.82;7.13;;;0.10;98.10;;;;;;5055193;28;20228;-73
2022/11/21 01:48:59;;;;;;;7.70;6.75;;;0.20;99.30;;;;;;5055348;28;20664;-73
2022/11/21 01:51:37;;;;;;;11.82;8.00;;;0.20;99.90;;;;;;5055121;28;20632;-74
2022/11/21 01:54:07;;;;;;;9.98;8.05;;;0.20;98.40;;;;;;5054168;28;20251;-74
2022/11/21 01:56:41;;;;;;;7.38;6.60;;;0.20;99.90;;;;;;5054595;28;20187;-74
2022/11/21 01:59:10;;;;;;;7.35;6.65;;;0.20;98.90;;;;;;5055045;28;20166;-75
2022/11/21 02:01:37;;;;;;;8.10;7.28;;;0.30;98.40;;;;;;5053612;28;20703;-75
2022/11/21 02:04:05;;;;;;;8.55;6.65;;;0.30;99.90;;;;;;5053816;28;20175;-74
2022/11/21 02:06:33;;;;;;;9.07;6.28;;;0.30;98.30;;;;;;5054719;28;20286;-73
2022/11/21 02:09:00;;;;;;;8.73;6.93;;;0.30;99.90;;;;;;5054846;28;20167;-73
2022/11/21 02:11:35;;;;;;;8.68;7.55;;;0.40;99.90;;;;;;5054650;28;20167;-73
2022/11/21 02:14:01;;;;;;;7.50;5.90;;;0.40;99.90;;;;;;5053226;28;20587;-74
2022/11/21 02:16:28;;;;;;;7.40;6.63;;;0.40;99.90;;;;;;5054631;28;20270;-74
2022/11/21 02:18:54;;;;;;;10.55;7.03;;;0.40;99.90;;;;;;5054774;28;20401;-73
2022/11/21 02:21:31;;;;;;;8.03;6.80;;;0.40;95.30;;;;;;5054535;28;20181;-74
2022/11/21 02:24:12;;;;;;;8.65;7.38;;;0.50;99.90;;;;;;5053371;28;20400;-74
2022/11/21 02:26:38;;;;;;;7.38;6.68;;;0.40;99.00;;;;;;5054177;28;20193;-74
2022/11/21 02:29:03;;;;;;;10.83;6.83;;;0.40;94.30;;;;;;5054331;28;20171;-73
2022/11/21 02:31:29;;;;;;;7.73;6.50;;;0.40;95.80;;;;;;5053877;28;20166;-73
2022/11/21 02:33:55;;;;;;;8.50;6.60;;;0.40;92.70;;;;;;5053304;28;20186;-74
2022/11/21 02:36:53;;;;;;;8.50;6.77;;;0.30;91.60;;;;;;5054008;28;20227;-74
2022/11/21 02:39:24;;;;;;;9.20;5.85;;;0.30;94.90;;;;;;5031256;28;20244;-73
2022/11/21 02:42:15;;;;;;;7.68;6.45;;;0.30;93.50;;;;;;5054186;28;20318;-73
2022/11/21 02:45:25;;;;;;;10.25;8.00;;;0.40;93.30;;;;;;5053191;28;20570;-73
2022/11/21 02:47:54;;;;;;;7.30;6.60;;;0.40;93.20;;;;;;5034064;28;20214;-73
2022/11/21 02:50:26;;;;;;;9.55;6.55;;;0.30;93.30;;;;;;5053969;28;20174;-73
2022/11/21 02:52:52;;;;;;;6.97;6.35;;;0.40;93.90;;;;;;5053986;28;20275;-74
2022/11/21 02:55:17;;;;;;;7.03;6.33;;;0.30;88.00;;;;;;5053083;28;20257;-73
2022/11/21 02:57:43;;;;;;;8.77;7.43;;;0.20;88.00;;;;;;5053709;28;20186;-73
2022/11/21 03:00:10;;;;;;;8.07;7.20;;;0.20;88.10;;;;;;5069432;28;20168;-73
2022/11/21 03:02:36;;;;;;;11.00;6.47;;;0.10;87.90;;;;;;5053738;28;20172;-73
2022/11/21 03:05:06;;;;;;;6.90;6.30;;;0.10;87.80;;;;;;5052791;28;20193;-73
2022/11/21 03:07:32;;;;;;;6.40;5.70;;;0.10;87.80;;;;;;5052985;28;20460;-73
2022/11/21 03:09:58;;;;;;;8.50;6.32;;;0.10;87.90;;;;;;5053665;28;20308;-74
2022/11/21 03:12:24;;;;;;;7.70;6.43;;;0.10;87.90;;;;;;5053555;28;20253;-74
2022/11/21 03:14:49;;;;;;;6.97;6.00;;;0.20;88.00;;;;;;5052735;28;20173;-73
2022/11/21 03:17:15;;;;;;;12.93;7.77;;;0.20;88.20;;;;;;5053627;28;20187;-74
2022/11/21 03:19:41;;;;;;;7.57;6.70;;;0.30;88.10;;;;;;5053549;28;20174;-73
2022/11/21 03:22:07;;;;;;;7.70;6.40;;;0.30;88.00;;;;;;5053235;28;20179;-74
2022/11/21 03:24:36;;;;;;;6.90;6.15;;;0.30;88.10;;;;;;5052213;28;20179;-73
2022/11/21 03:27:01;;;;;;;8.48;7.10;;;0.20;88.00;;;;;;5053405;28;20249;-73
2022/11/21 03:29:27;;;;;;;8.50;7.57;;;0.30;88.00;;;;;;5053484;28;20206;-74
2022/11/21 03:31:53;;;;;;;10.20;6.63;;;0.30;88.00;;;;;;5053414;28;20213;-73
2022/11/21 03:34:19;;;;;;;7.20;6.60;;;0.40;88.20;;;;;;5052365;28;20167;-74
2022/11/21 03:36:44;;;;;;;8.27;6.47;;;0.40;88.10;;;;;;5053047;28;20195;-73
2022/11/21 03:39:10;;;;;;;6.90;5.87;;;0.30;90.90;;;;;;5053351;28;20163;-73
2022/11/21 03:41:36;;;;;;;7.47;6.33;;;0.40;88.40;;;;;;5052852;28;20563;-73
2022/11/21 03:44:04;;;;;;;10.60;6.83;;;0.30;88.00;;;;;;5052285;28;20620;-74
2022/11/21 03:46:33;;;;;;;6.45;5.80;;;0.40;88.10;;;;;;5053151;28;20289;-74
2022/11/21 03:48:59;;;;;;;10.95;6.30;;;0.40;88.10;;;;;;5053238;28;20559;-74
2022/11/21 03:51:25;;;;;;;10.53;6.73;;;0.40;88.20;;;;;;5053632;28;20171;-74
2022/11/21 03:53:50;;;;;;;9.53;7.07;;;0.50;88.10;;;;;;5056506;28;20731;-74
2022/11/21 03:56:16;;;;;;;10.40;6.40;;;0.50;88.20;;;;;;5057162;28;20918;-74
2022/11/21 03:58:42;;;;;;;9.70;7.30;;;0.50;88.30;;;;;;5056671;28;20447;-74
2022/11/21 04:01:09;;;;;;;9.82;7.93;;;0.30;88.00;;;;;;5055915;28;21055;-73
2022/11/21 04:03:35;;;;;;;9.23;7.03;;;0.30;88.00;;;;;;5056849;28;20178;-73
2022/11/21 04:06:01;;;;;;;7.60;5.83;;;0.20;87.90;;;;;;5056397;28;20199;-74
2022/11/21 04:08:27;;;;;;;8.32;7.20;;;0.20;87.90;;;;;;5056996;28;20459;-73
2022/11/21 04:10:53;;;;;;;11.73;8.85;;;0.30;88.00;;;;;;5056945;28;20193;-73
2022/11/21 04:13:20;;;;;;;9.05;6.15;;;0.30;87.90;;;;;;5056643;28;20159;-73
2022/11/21 04:15:46;;;;;;;9.95;6.80;;;0.30;88.00;;;;;;5055682;28;20282;-74
2022/11/21 04:18:12;;;;;;;9.57;7.63;;;0.20;88.00;;;;;;5056834;28;20249;-73
2022/11/21 04:20:38;;;;;;;11.60;7.30;;;0.20;87.90;;;;;;5055768;28;20914;-74
2022/11/21 04:23:44;;;;;;;7.03;6.50;;;0.10;87.80;;;;;;5056648;28;20478;-74
2022/11/21 04:26:10;;;;;;;11.60;6.72;;;0.10;87.80;;;;;;5056628;28;20198;-73
2022/11/21 04:28:35;;;;;;;7.13;6.30;;;0.00;82.80;;;;;;5056600;28;20690;-73
2022/11/21 04:31:06;;;;;;;8.07;6.43;;;0.00;86.50;;;;;;5055994;28;20178;-73
2022/11/21 04:33:32;;;;;;;8.05;7.00;;;0.00;87.20;;;;;;5056203;28;20163;-74
2022/11/21 04:35:57;;;;;;;9.47;7.17;;;-0.20;67.50;;;;;;5055804;28;20191;-73
2022/11/21 04:38:23;;;;;;;6.40;5.77;;;-0.40;73.20;;;;;;5056614;28;20274;-72
2022/11/21 04:40:49;;;;;;;7.60;6.00;;;-0.50;71.60;;;;;;5056609;28;20585;-73
2022/11/21 04:43:15;;;;;;;8.83;6.90;;;-0.70;68.70;;;;;;5056295;28;20412;-73
2022/11/21 04:45:41;;;;;;;7.27;6.23;;;-0.70;78.60;;;;;;5054121;28;20837;-73
2022/11/21 04:48:06;;;;;;;7.43;6.67;;;-0.60;75.70;;;;;;5054717;28;20218;-73
2022/11/21 04:50:35;;;;;;;6.93;6.23;;;-0.60;79.80;;;;;;5056122;28;20155;-73
2022/11/21 04:53:00;;;;;;;9.10;6.95;;;-0.70;72.20;;;;;;5056085;28;20224;-73
2022/11/21 04:55:29;;;;;;;7.00;6.37;;;-0.80;73.20;;;;;;5055273;28;20167;-73
2022/11/21 04:57:54;;;;;;;7.75;6.82;;;-0.70;85.20;;;;;;5056330;28;20179;-72
2022/11/21 05:00:20;;;;;;;8.50;7.37;;;-0.70;87.40;;;;;;5055305;28;20235;-73
2022/11/21 05:02:46;;;;;;;8.67;6.60;;;-0.70;84.40;;;;;;5056044;28;20308;-73
2022/11/21 05:05:12;;;;;;;8.27;6.83;;;-0.70;82.80;;;;;;5054641;28;20179;-73
2022/11/21 05:07:38;;;;;;;8.13;6.60;;;-0.60;89.90;;;;;;5055659;28;20252;-73
2022/11/21 05:10:05;;;;;;;7.37;5.73;;;-0.60;87.30;;;;;;5055938;28;20397;-73
2022/11/21 05:15:15;;;;;;;9.98;8.38;;;-0.40;87.50;;;;;;5054812;28;20169;-73
2022/11/21 05:17:41;;;;;;;10.30;8.00;;;-0.40;87.50;;;;;;5055672;28;20273;-72
2022/11/21 05:20:08;;;;;;;7.90;7.10;;;-0.40;87.50;;;;;;5055772;28;20754;-73
2022/11/21 05:22:33;;;;;;;10.75;6.88;;;-0.30;87.50;;;;;;5055537;28;20171;-73
2022/11/21 05:24:59;;;;;;;8.63;6.87;;;-0.20;87.60;;;;;;5054390;28;20197;-71
2022/11/21 05:27:25;;;;;;;8.77;6.70;;;-0.20;87.60;;;;;;5055239;28;20256;-72
2022/11/21 05:29:51;;;;;;;7.10;6.40;;;-0.10;87.70;;;;;;5055311;28;20637;-73
2022/11/21 05:32:16;;;;;;;10.07;7.53;;;-0.10;87.70;;;;;;5055570;28;20171;-72
2022/11/21 05:34:42;;;;;;;6.43;5.77;;;0.00;87.80;;;;;;5054651;28;20177;-71
2022/11/21 05:37:08;;;;;;;9.60;6.43;;;0.00;87.70;;;;;;5055218;28;20198;-73
2022/11/21 05:39:33;;;;;;;8.07;6.70;;;0.00;87.70;;;;;;5055075;28;20608;-73
2022/11/21 05:41:59;;;;;;;10.77;6.60;;;0.00;87.30;;;;;;5055236;28;20175;-72
2022/11/21 05:44:25;;;;;;;8.63;5.80;;;0.10;87.90;;;;;;5054239;28;20175;-73
2022/11/21 05:46:50;;;;;;;5.47;4.93;;;0.00;78.20;;;;;;5055149;28;20195;-72
2022/11/21 05:49:16;;;;;;;7.40;5.60;;;-0.10;69.80;;;;;;5055124;28;20202;-72
2022/11/21 05:51:42;;;;;;;5.70;5.20;;;-0.10;64.00;;;;;;5054896;28;20167;-72
2022/11/21 05:54:12;;;;;;;5.83;5.27;;;-0.10;65.70;;;;;;5054102;28;20186;-73
2022/11/21 05:56:37;;;;;;;10.82;5.55;;;-0.10;60.20;;;;;;5055072;28;20548;-73
2022/11/21 05:59:03;;;;;;;6.00;4.80;;;0.00;65.70;;;;;;5055130;28;20171;-73
2022/11/21 06:04:13;;;;;;;6.25;5.53;;;0.00;64.50;;;;;;5053944;28;20555;-72
2022/11/21 06:06:40;;;;;;;12.30;6.20;;;-0.10;50.60;;;;;;5054723;28;20198;-71
2022/11/21 06:09:06;;;;;;;10.65;7.75;;;-0.10;52.20;;;;;;5054812;28;20703;-73
2022/11/21 06:11:31;;;;;;;6.57;6.00;;;-0.10;50.20;;;;;;5054622;28;20163;-73
2022/11/21 06:13:57;;;;;;;6.73;5.13;;;0.00;58.90;;;;;;5053366;28;20174;-73
2022/11/21 06:16:23;;;;;;;8.77;6.17;;;0.00;48.60;;;;;;5054265;28;20186;-74
2022/11/21 06:18:53;;;;;;;6.67;5.13;;;0.00;48.70;;;;;;5054098;28;20171;-72
2022/11/21 06:21:20;;;;;;;7.60;6.18;;;0.00;53.20;;;;;;5054418;28;20167;-72
2022/11/21 06:23:49;;;;;;;9.75;6.22;;;0.00;49.20;;;;;;5053459;28;20173;-73
2022/11/21 06:26:17;;;;;;;7.13;5.80;;;0.00;55.70;;;;;;5054282;28;20559;-73
2022/11/21 06:28:44;;;;;;;7.28;6.07;;;0.00;50.60;;;;;;5054346;28;20717;-74
2022/11/21 06:31:14;;;;;;;9.43;7.50;;;0.00;44.00;;;;;;5054293;28;20163;-73
2022/11/21 06:33:41;;;;;;;8.50;6.10;;;-0.10;49.20;;;;;;5053587;28;20162;-72
2022/11/21 06:36:09;;;;;;;5.88;5.28;;;-0.10;45.40;;;;;;5054041;28;20273;-73
2022/11/21 06:38:35;;;;;;;5.72;5.20;;;-0.10;42.50;;;;;;5053750;28;20186;-72
2022/11/21 06:41:05;;;;;;;10.37;6.27;;;0.00;49.00;;;;;;5054118;28;20179;-72
2022/11/21 06:43:31;;;;;;;6.75;6.15;;;0.10;51.60;;;;;;5054015;28;20171;-72
2022/11/21 06:45:57;;;;;;;7.53;5.43;;;0.00;49.70;;;;;;5053528;28;20548;-73
2022/11/21 06:48:23;;;;;;;7.70;6.20;;;0.00;38.60;;;;;;5053841;28;20198;-73
2022/11/21 06:50:49;;;;;;;9.47;6.43;;;0.00;45.30;;;;;;5054022;28;20171;-73
2022/11/21 06:53:14;;;;;;;6.80;6.20;;;-0.10;43.20;;;;;;5054119;28;20409;-72
2022/11/21 06:55:40;;;;;;;7.97;7.07;;;-0.10;39.80;;;;;;5052782;28;20632;-71
2022/11/21 06:58:06;;;;;;;9.20;6.60;;;-0.10;31.40;;;;;;5052614;28;20305;-72
2022/11/21 07:00:32;;;;;;;8.00;6.63;;;-0.10;41.80;;;;;;5053795;28;20182;-72
2022/11/21 07:03:02;;;;;;;9.30;6.03;;;-0.10;47.80;;;;;;5053817;28;20175;-73
2022/11/21 07:05:28;;;;;;;9.30;7.22;;;-0.10;39.60;;;;;;5053064;28;20178;-73
2022/11/21 07:08:01;;;;;;;7.82;6.07;;;-0.10;50.40;;;;;;5052391;28;20206;-73
2022/11/21 07:10:28;;;;;;;6.18;5.13;;;-0.10;46.50;;;;;;5053751;28;20635;-73
2022/11/21 07:15:48;;;;;;;7.28;5.68;;;0.00;36.20;;;;;;5053035;28;20174;-72
2022/11/21 07:18:13;;;;;;;7.32;6.63;;;0.00;53.40;;;;;;5052363;28;20181;-72
2022/11/21 07:20:40;;;;;;;7.70;6.17;;;0.10;51.00;;;;;;5053552;28;20175;-73
2022/11/21 07:23:07;;;;;;;7.93;6.22;;;0.10;65.30;;;;;;5053516;28;20409;-72
2022/11/21 07:25:32;;;;;;;7.22;6.40;;;0.20;60.50;;;;;;5052475;28;20628;-73
2022/11/21 07:27:59;;;;;;;9.77;6.00;;;0.20;63.20;;;;;;5052731;28;20240;-72
2022/11/21 07:30:25;;;;;;;5.63;5.05;;;0.10;53.20;;;;;;5052843;28;20470;-73
2022/11/21 07:32:55;;;;;;;8.10;7.33;;;0.20;63.80;;;;;;5053493;28;20584;-71
2022/11/21 07:35:21;;;;;;;7.13;6.40;;;0.20;56.50;;;;;;5051379;28;20414;-71
2022/11/21 07:37:47;;;;;;;8.10;5.80;;;0.30;60.70;;;;;;5053195;28;20319;-73
2022/11/21 07:40:13;;;;;;;8.00;5.40;;;0.30;48.50;;;;;;5053238;28;20909;-72
2022/11/21 07:42:38;;;;;;;9.50;8.50;;;0.30;34.20;;;;;;5053126;28;20183;-72
2022/11/21 07:45:04;;;;;;;8.07;6.17;;;0.30;27.70;;;;;;5052746;28;20167;-73
2022/11/21 07:47:33;;;;;;;7.03;6.32;;;0.20;39.00;;;;;;5053072;28;20679;-71
2022/11/21 07:49:59;;;;;;;6.00;5.30;;;0.20;38.00;;;;;;5052865;28;20263;-71
2022/11/21 07:52:24;;;;;;;4.80;4.40;;;0.30;43.90;;;;;;5053121;28;20246;-72
2022/11/21 07:54:50;;;;;;;9.67;6.00;;;0.30;26.90;;;;;;5052445;28;20224;-73
2022/11/21 07:57:16;;;;;;;8.80;6.15;;;0.20;26.20;;;;;;5052582;28;20190;-73
2022/11/21 07:59:43;;;;;;;6.23;4.57;;;0.30;29.70;;;;;;5053111;28;20256;-72
2022/11/21 08:02:29;;;;;;;7.03;5.28;;;0.30;24.90;;;;;;5052895;28;20441;-73
2022/11/21 08:04:54;;;;;;;7.50;6.05;;;0.40;27.80;;;;;;5050415;28;20205;-72
2022/11/21 08:07:22;;;;;;;5.90;5.10;;;0.40;24.30;;;;;;5052787;28;20202;-73
2022/11/21 08:09:48;;;;;;;6.10;5.60;;;0.50;20.70;;;;;;5052939;28;20166;-71
2022/11/21 08:12:14;;;;;;;5.60;4.00;;;0.50;13.40;;;;;;5052687;28;20176;-72
2022/11/21 08:14:40;;;;;;;5.40;4.70;;;0.60;19.90;;;;;;5051932;28;20171;-72
2022/11/21 08:17:06;;;;;;;6.07;5.45;;;0.60;18.40;;;;;;5052552;28;20433;-73
2022/11/21 08:19:33;;;;;;;5.53;5.03;;;0.60;11.70;;;;;;5053010;28;20647;-73
2022/11/21 08:21:58;;;;;;;5.07;4.57;;;0.70;16.10;;;;;;5052609;28;20167;-72
2022/11/21 08:24:25;;;;;;;5.53;4.63;;;0.70;7.20;;;;;;5052075;28;20624;-73
2022/11/21 08:26:52;;;;;;;8.32;5.55;;;0.80;5.20;;;;;;5050915;28;20437;-73
2022/11/21 08:29:17;;;;;;;4.80;4.38;;;0.80;7.40;;;;;;5052172;28;20175;-72
2022/11/21 08:31:44;;;;;;;4.30;4.00;;;0.80;10.50;;;;;;5052293;28;20167;-72
2022/11/21 08:34:11;;;;;;;6.47;4.45;;;0.80;10.20;;;;;;5051442;28;20174;-72
2022/11/21 08:36:36;;;;;;;9.43;5.15;;;1.00;20.20;;;;;;5052581;28;20241;-73
2022/11/21 08:39:03;;;;;;;6.27;5.77;;;1.10;20.30;;;;;;5055294;28;20897;-73
2022/11/21 08:44:13;;;;;;;6.40;4.95;;;1.20;11.70;;;;;;5055404;28;20258;-73
2022/11/21 08:46:38;;;;;;;5.47;4.97;;;1.30;10.80;;;;;;5055826;28;20277;-73
2022/11/21 08:49:06;;;;;;;5.57;4.50;;;1.40;6.40;;;;;;5056165;28;20203;-72
2022/11/21 08:51:32;;;;;;;5.35;4.85;;;1.40;1.00;;;;;;5056040;28;20206;-72
2022/11/21 08:53:58;;;;;;;6.97;5.35;;;1.30;1.00;;;;;;5055214;28;20187;-73
2022/11/21 08:56:24;;;;;;;5.60;5.03;;;1.30;1.00;;;;;;5056001;28;20195;-72
2022/11/21 08:58:49;;;;;;;7.53;6.40;;;1.30;1.00;;;;;;5055962;28;20254;-71
2022/11/21 09:01:15;;;;;;;8.03;5.40;;;1.30;1.00;;;;;;5056012;28;20500;-70
2022/11/21 09:03:41;;;;;;;7.80;6.20;;;1.20;1.00;;;;;;5054581;28;20177;-70
2022/11/21 09:06:07;;;;;;;5.13;4.73;;;1.10;1.00;;;;;;5055608;28;20567;-72
2022/11/21 09:08:33;;;;;;;6.00;5.50;;;1.10;1.00;;;;;;5055686;28;20205;-72
2022/11/21 09:11:03;;;;;;;8.50;7.33;;;1.10;1.00;;;;;;5055954;28;20394;-72
2022/11/21 09:13:29;;;;;;;10.98;7.63;;;1.10;1.00;;;;;;5055318;28;20220;-72
2022/11/21 09:18:41;;;;;;;7.15;6.05;;;1.10;1.00;;;;;;5055819;28;20662;-71
2022/11/21 09:21:07;;;;;;;8.90;6.03;;;1.10;2.70;;;;;;5055697;28;20175;-72
2022/11/21 09:23:33;;;;;;;9.80;6.70;;;1.00;1.10;;;;;;5054695;28;20178;-72
2022/11/21 09:26:00;;;;;;;15.30;8.60;;;1.00;1.00;;;;;;5054887;28;20790;-72
2022/11/21 09:28:26;;;;;;;11.68;7.55;;;1.00;1.00;;;;;;5055254;28;20203;-72
2022/11/21 09:30:51;;;;;;;7.13;6.30;;;1.00;1.00;;;;;;5055469;28;20182;-72
2022/11/21 09:33:17;;;;;;;8.50;6.30;;;1.00;2.60;;;;;;5055102;28;20254;-71
2022/11/21 09:35:43;;;;;;;7.03;6.27;;;1.00;6.10;;;;;;5054497;28;20214;-71
2022/11/21 09:38:09;;;;;;;8.70;6.63;;;1.10;3.80;;;;;;5055042;28;20178;-70
2022/11/21 09:40:35;;;;;;;7.20;6.50;;;1.20;3.90;;;;;;5054667;28;20178;-71
2022/11/21 09:43:38;;;;;;;7.17;6.47;;;1.20;1.70;;;;;;5055106;28;20179;-71
2022/11/21 09:46:30;;;;;;;9.52;6.60;;;1.20;1.00;;;;;;5055065;28;20427;-71
2022/11/21 09:48:59;;;;;;;11.57;6.45;;;1.20;1.00;;;;;;5054467;28;20602;-71
2022/11/21 09:51:29;;;;;;;6.75;6.15;;;1.20;1.00;;;;;;5054510;28;20193;-71
2022/11/21 09:54:09;;;;;;;11.68;6.10;;;1.20;1.00;;;;;;5070004;28;20536;-71
2022/11/21 09:56:38;;;;;;;7.95;6.32;;;1.20;1.00;;;;;;5055246;28;20214;-71
2022/11/21 09:59:13;;;;;;;9.63;7.13;;;1.30;1.00;;;;;;5054608;28;20175;-71
2022/11/21 10:01:39;;;;;;;6.95;6.25;;;1.20;1.00;;;;;;5055031;28;20658;-71
2022/11/21 10:04:04;;;;;;;7.73;6.40;;;1.30;1.00;;;;;;5054328;28;20198;-73
2022/11/21 10:06:45;;;;;;;8.30;6.60;;;1.30;1.00;;;;;;5054946;28;20195;-70
2022/11/21 10:09:29;;;;;;;8.77;7.53;;;1.40;1.00;;;;;;5054753;28;20234;-72
2022/11/21 10:15:16;;;;;;;8.02;7.03;;;1.30;1.00;;;;;;5053736;28;20834;-70
2022/11/21 10:18:06;;;;;;;9.95;7.72;;;1.20;1.00;;;;;;5054559;28;20195;-70
2022/11/21 10:20:55;;;;;;;10.48;7.43;;;1.30;1.00;;;;;;5054700;28;20194;-70
2022/11/21 10:23:42;;;;;;;12.48;7.60;;;1.20;1.00;;;;;;5054458;28;20178;-72
2022/11/21 10:26:11;;;;;;;10.32;7.57;;;1.20;1.00;;;;;;5054387;28;20186;-70
2022/11/21 10:28:49;;;;;;;9.35;8.43;;;1.20;1.00;;;;;;5054345;28;20198;-70
2022/11/21 10:31:16;;;;;;;12.68;8.77;;;1.20;1.00;;;;;;5054143;28;20643;-70
2022/11/21 10:33:41;;;;;;;9.17;7.97;;;1.20;1.00;;;;;;5053370;28;20269;-72
2022/11/21 10:36:33;;;;;;;8.13;7.33;;;1.30;1.70;;;;;;5054324;28;20568;-70
2022/11/21 10:39:24;;;;;;;16.80;8.95;;;1.40;1.00;;;;;;5054313;28;20409;-70
2022/11/21 10:41:50;;;;;;;11.68;8.43;;;1.30;1.00;;;;;;5054054;28;20269;-71
2022/11/21 10:47:29;;;;;;;16.42;8.13;;;1.40;1.00;;;;;;5054131;28;20194;-71
2022/11/21 10:50:02;;;;;;;12.15;8.60;;;1.40;1.00;;;;;;5053172;28;20170;-69
2022/11/21 10:52:34;;;;;;;12.43;8.00;;;1.40;1.00;;;;;;5053524;28;20167;-73
2022/11/21 10:55:02;;;;;;;12.80;9.52;;;1.50;1.00;;;;;;5052667;28;20183;-72
2022/11/21 10:57:35;;;;;;;15.13;10.63;;;1.50;1.00;;;;;;5053678;28;20195;-72
2022/11/21 11:00:12;;;;;;;10.48;8.70;;;1.60;1.00;;;;;;5053610;28;20197;-69
2022/11/21 11:03:06;;;;;;;11.00;8.80;;;1.60;1.00;;;;;;5052893;28;20189;-72
2022/11/21 11:05:35;;;;;;;12.75;9.48;;;1.60;1.00;;;;;;5050928;28;20445;-69
2022/11/21 11:08:09;;;;;;;11.73;9.60;;;1.60;1.00;;;;;;5052407;28;20604;-72
2022/11/21 11:10:44;;;;;;;12.80;9.68;;;1.70;1.00;;;;;;5053214;28;20670;-72
2022/11/21 11:13:33;;;;;;;11.18;8.30;;;1.70;1.00;;;;;;5053548;28;20215;-73
2022/11/21 11:16:06;;;;;;;10.05;8.25;;;1.80;1.00;;;;;;5032964;28;20253;-72
2022/11/21 11:18:36;;;;;;;10.98;9.30;;;1.90;1.00;;;;;;5035104;28;20163;-74
2022/11/21 11:21:20;;;;;;;10.03;7.50;;;1.90;1.00;;;;;;5053019;28;20250;-70
2022/11/21 11:23:51;;;;;;;13.60;8.67;;;1.80;1.00;;;;;;5052327;28;20413;-70
2022/11/21 11:26:29;;;;;;;13.73;8.13;;;1.80;1.00;;;;;;5052988;28;20451;-70
2022/11/21 11:29:18;;;;;;;11.55;7.28;;;1.80;1.00;;;;;;5053200;28;20194;-72
2022/11/21 11:32:14;;;;;;;16.38;8.13;;;1.90;1.00;;;;;;5053401;28;20242;-70
2022/11/21 11:34:47;;;;;;;10.55;8.40;;;1.80;1.00;;;;;;5051132;28;20205;-72
2022/11/21 11:37:36;;;;;;;12.00;8.32;;;1.80;1.00;;;;;;5052955;28;20261;-72
2022/11/21 11:40:24;;;;;;;11.50;7.10;;;1.80;1.00;;;;;;5052756;28;20163;-70
2022/11/21 11:48:48;;;;;;;10.05;7.72;;;1.90;1.00;;;;;;5052873;28;20210;-72
2022/11/21 11:51:38;;;;;;;10.73;7.60;;;1.90;1.00;;;;;;5053501;28;20524;-72
2022/11/21 11:54:16;;;;;;;10.70;8.10;;;1.90;1.00;;;;;;5052012;28;20572;-73
2022/11/21 11:56:42;;;;;;;12.18;7.75;;;2.00;1.00;;;;;;5053016;28;20187;-72
2022/11/21 11:59:40;;;;;;;8.47;7.60;;;2.00;1.00;;;;;;5052603;28;20171;-71
2022/11/21 12:02:27;;;;;;;11.53;7.23;;;2.00;1.00;;;;;;5052818;28;20454;-70
2022/11/21 12:05:01;;;;;;;10.90;7.63;;;2.10;1.00;;;;;;5052268;28;20432;-71
2022/11/21 12:07:27;;;;;;;11.50;7.60;;;2.20;1.00;;;;;;5052644;28;20464;-72
2022/11/21 12:10:17;;;;;;;9.70;7.60;;;2.30;1.00;;;;;;5053063;28;20794;-71
2022/11/21 12:12:58;;;;;;;10.23;8.47;;;2.30;1.00;;;;;;5052508;28;20290;-70
2022/11/21 12:15:51;;;;;;;10.90;8.50;;;2.40;1.00;;;;;;5056001;28;20416;-71
2022/11/21 12:18:19;;;;;;;13.23;8.10;;;2.40;1.00;;;;;;5056376;28;20933;-70
2022/11/21 12:21:11;;;;;;;9.03;6.47;;;2.40;1.00;;;;;;5056701;28;20413;-71
2022/11/21 12:23:54;;;;;;;10.87;7.97;;;2.30;1.00;;;;;;5054369;28;20421;-70
2022/11/21 12:26:44;;;;;;;10.20;8.47;;;2.40;1.00;;;;;;5056602;28;20441;-69
2022/11/21 12:29:15;;;;;;;10.53;7.63;;;2.50;1.00;;;;;;5056800;28;20453;-72
2022/11/21 12:32:07;;;;;;;11.90;7.47;;;2.60;1.00;;;;;;5056426;28;20817;-70
2022/11/21 12:34:55;;;;;;;11.47;8.20;;;2.70;1.00;;;;;;5045969;28;20409;-71
2022/11/21 12:37:35;;;;;;;12.37;7.37;;;2.80;1.00;;;;;;5056062;28;20448;-70
2022/11/21 12:40:00;;;;;;;9.83;7.50;;;2.80;1.00;;;;;;5056263;28;20462;-70
2022/11/21 12:42:48;;;;;;;8.40;7.57;;;2.80;1.00;;;;;;5056465;28;20405;-71
2022/11/21 12:45:20;;;;;;;13.37;8.70;;;2.80;1.00;;;;;;5055365;28;20535;-70
2022/11/21 12:54:32;;;;;;;9.10;8.13;;;2.70;1.00;;;;;;5055478;28;20404;-69
2022/11/21 12:57:15;;;;;;;10.73;8.13;;;2.60;1.00;;;;;;5055433;28;20562;-69
2022/11/21 13:00:06;;;;;;;11.40;9.50;;;2.70;1.00;;;;;;5056163;28;20405;-68
2022/11/21 13:02:53;;;;;;;11.83;6.93;;;2.70;1.00;;;;;;5032424;28;20418;-68
2022/11/21 13:05:32;;;;;;;9.57;8.57;;;2.60;1.00;;;;;;5043098;28;21035;-67
2022/11/21 13:08:12;;;;;;;15.57;7.57;;;2.60;1.00;;;;;;5055930;28;20460;-68
2022/11/21 13:10:46;;;;;;;11.60;8.70;;;2.60;1.00;;;;;;5055959;28;20870;-68
2022/11/21 13:13:25;;;;;;;11.50;8.57;;;2.60;1.00;;;;;;5055736;28;20396;-67
2022/11/21 13:16:02;;;;;;;10.70;7.20;;;2.50;1.00;;;;;;5053862;28;20487;-68
2022/11/21 13:18:34;;;;;;;14.80;7.67;;;2.50;1.00;;;;;;5055781;28;20401;-67
2022/11/21 13:21:00;;;;;;;9.90;7.80;;;2.50;1.00;;;;;;5035831;28;20879;-67
2022/11/21 13:23:40;;;;;;;10.47;7.50;;;2.50;1.00;;;;;;5034419;28;20501;-68
2022/11/21 13:26:24;;;;;;;10.17;9.13;;;2.50;1.00;;;;;;5052252;28;20297;-67
2022/11/21 13:29:05;;;;;;;11.27;7.60;;;2.50;1.00;;;;;;5055192;28;20449;-69
2022/11/21 13:31:35;;;;;;;11.33;8.70;;;2.50;1.00;;;;;;5055492;28;20448;-67
2022/11/21 13:34:04;;;;;;;10.07;8.87;;;2.50;1.00;;;;;;5054004;28;20425;-67
2022/11/21 13:36:33;;;;;;;11.70;7.97;;;2.50;1.00;;;;;;5055364;28;20421;-67
2022/11/21 13:38:59;;;;;;;12.00;8.23;;;2.60;1.00;;;;;;5055367;28;20418;-69
2022/11/21 13:44:42;;;;;;;12.93;9.00;;;2.70;1.00;;;;;;5034481;28;20421;-68
2022/11/21 13:47:13;;;;;;;13.77;7.67;;;2.80;1.00;;;;;;5032040;28;20456;-66